Time;durP1;ratioP1;P1;durP2;ratioP2;P2;SDS_P1;SDS_P2;PMS_P1;PMS_P2;Temp;Humidity;BMP_temperature;BMP_pressure;BME280_temperature;BME280_humidity;BME280_pressure;Samples;Min_cycle;Max_cycle;Signal;HPM_P1;HPM_P2
2022/03/13 00:00:21;;;;;;;;;;;;;;;;;;1017884;29;3995;-72
2022/03/13 00:01:12;;;;;;;;;;;;;;;;;;1015750;29;4094;-73
2022/03/13 00:01:42;;;;;;;;;;;;;;;;;;1018212;29;1783;-74
2022/03/13 00:02:16;;;;;;;;;;;;;;;;;;1018362;29;3767;-73
2022/03/13 00:02:47;;;;;;;;;;;;;;;;;;1020642;29;4028;-71
2022/03/13 00:03:18;;;;;;;;;;;;;;;;;;1022750;28;1616;-74
2022/03/13 00:03:48;;;;;;;;;;;;;;;;;;1022378;28;4016;-72
2022/03/13 00:04:19;;;;;;;;;;;;;;;;;;1022199;28;1656;-72
2022/03/13 00:04:49;;;;;;;;;;;;;;;;;;1022371;28;4072;-72
2022/03/13 00:05:19;;;;;;;;;;;;;;;;;;1022732;28;2426;-72
2022/03/13 00:05:51;;;;;;;;;;;;;;;;;;1021833;28;4056;-72
2022/03/13 00:06:27;;;;;;;;;;;;;;;;;;1022615;28;1989;-72
2022/03/13 00:06:58;;;;;;;;;;;;;;;;;;1017855;29;4055;-75
2022/03/13 00:07:29;;;;;;;;;;;;;;;;;;1017636;29;2342;-71
2022/03/13 00:08:02;;;;;;;;;;;;;;;;;;1017400;29;3820;-71
2022/03/13 00:08:40;;;;;;;;;;;;;;;;;;1019284;28;1695;-73
2022/03/13 00:09:12;;;;;;;;;;;;;;;;;;1022653;29;3907;-72
2022/03/13 00:09:44;;;;;;;;;;;;;;;;;;1022529;28;1859;-71
2022/03/13 00:10:16;;;;;;;;;;;;;;;;;;1022442;28;3752;-74
2022/03/13 00:10:50;;;;;;;;;;;;;;;;;;1021610;28;3814;-72
2022/03/13 00:11:20;;;;;;;;;;;;;;;;;;1022838;28;1385;-72
2022/03/13 00:11:53;;;;;;;;;;;;;;;;;;1018031;29;4170;-72
2022/03/13 00:12:30;;;;;;;;;;;;;;;;;;1018197;29;1863;-73
2022/03/13 00:13:03;;;;;;;;;;;;;;;;;;1018158;29;3838;-71
2022/03/13 00:13:35;;;;;;;;;;;;;;;;;;1019302;29;1997;-71
2022/03/13 00:14:05;;;;;;;;;;;;;;;;;;1017560;29;4028;-70
2022/03/13 00:14:40;;;;;;;;;;;;;;;;;;1017507;29;1644;-73
2022/03/13 00:15:12;;;;;;;;;;;;;;;;;;1018595;29;4042;-74
2022/03/13 00:15:42;;;;;;;;;;;;;;;;;;1018673;29;1568;-74
2022/03/13 00:16:12;;;;;;;;;;;;;;;;;;1021654;29;4012;-72
2022/03/13 00:16:43;;;;;;;;;;;;;;;;;;1022001;29;1371;-74
2022/03/13 00:17:17;;;;;;;;;;;;;;;;;;1022260;28;4318;-73
2022/03/13 00:17:49;;;;;;;;;;;;;;;;;;1021588;28;3858;-71
2022/03/13 00:18:19;;;;;;;;;;;;;;;;;;1022384;28;2027;-75
2022/03/13 00:18:50;;;;;;;;;;;;;;;;;;1020255;28;4054;-73
2022/03/13 00:19:22;;;;;;;;;;;;;;;;;;1021683;28;2821;-71
2022/03/13 00:19:52;;;;;;;;;;;;;;;;;;1022330;28;3995;-73
2022/03/13 00:20:30;;;;;;;;;;;;;;;;;;1017175;29;1982;-72
2022/03/13 00:21:08;;;;;;;;;;;;;;;;;;1017602;29;4056;-71
2022/03/13 00:21:50;;;;;;;;;;;;;;;;;;1017219;29;3824;-72
2022/03/13 00:22:20;;;;;;;;;;;;;;;;;;1021305;28;1812;-71
2022/03/13 00:22:51;;;;;;;;;;;;;;;;;;1022322;28;4050;-72
2022/03/13 00:23:21;;;;;;;;;;;;;;;;;;1022546;28;1712;-72
2022/03/13 00:23:52;;;;;;;;;;;;;;;;;;1022329;28;3888;-74
2022/03/13 00:24:22;;;;;;;;;;;;;;;;;;1022861;28;1230;-73
2022/03/13 00:24:53;;;;;;;;;;;;;;;;;;1021804;28;4066;-71
2022/03/13 00:25:25;;;;;;;;;;;;;;;;;;1022683;28;1399;-75
2022/03/13 00:25:55;;;;;;;;;;;;;;;;;;1022147;28;3844;-72
2022/03/13 00:26:25;;;;;;;;;;;;;;;;;;1023067;28;2251;-72
2022/03/13 00:26:56;;;;;;;;;;;;;;;;;;1021456;28;4008;-73
2022/03/13 00:27:29;;;;;;;;;;;;;;;;;;1022387;29;1693;-72
2022/03/13 00:28:00;;;;;;;;;;;;;;;;;;1022164;28;3837;-73
2022/03/13 00:28:30;;;;;;;;;;;;;;;;;;1022594;28;2012;-74
2022/03/13 00:29:01;;;;;;;;;;;;;;;;;;1022185;28;3882;-74
2022/03/13 00:29:31;;;;;;;;;;;;;;;;;;1022429;28;1633;-72
2022/03/13 00:30:04;;;;;;;;;;;;;;;;;;1023063;28;4066;-72
2022/03/13 00:30:35;;;;;;;;;;;;;;;;;;1022189;28;1690;-75
2022/03/13 00:31:06;;;;;;;;;;;;;;;;;;1022613;28;3828;-73
2022/03/13 00:31:36;;;;;;;;;;;;;;;;;;1021456;28;2322;-73
2022/03/13 00:32:07;;;;;;;;;;;;;;;;;;1020768;28;3992;-73
2022/03/13 00:32:37;;;;;;;;;;;;;;;;;;1021725;29;1488;-73
2022/03/13 00:33:08;;;;;;;;;;;;;;;;;;1022507;28;3851;-73
2022/03/13 00:33:38;;;;;;;;;;;;;;;;;;1022868;28;1651;-72
2022/03/13 00:34:09;;;;;;;;;;;;;;;;;;1017199;29;4083;-74
2022/03/13 00:34:39;;;;;;;;;;;;;;;;;;1017846;29;2627;-75
2022/03/13 00:35:11;;;;;;;;;;;;;;;;;;1017714;29;3803;-71
2022/03/13 00:35:41;;;;;;;;;;;;;;;;;;1018930;29;1230;-72
2022/03/13 00:36:12;;;;;;;;;;;;;;;;;;1022472;28;3965;-72
2022/03/13 00:36:42;;;;;;;;;;;;;;;;;;1022313;28;2326;-71
2022/03/13 00:37:12;;;;;;;;;;;;;;;;;;1021808;28;3937;-73
2022/03/13 00:37:42;;;;;;;;;;;;;;;;;;1018433;29;1354;-74
2022/03/13 00:38:13;;;;;;;;;;;;;;;;;;1013759;29;3989;-71
2022/03/13 00:38:43;;;;;;;;;;;;;;;;;;1011237;29;1722;-73
2022/03/13 00:39:14;;;;;;;;;;;;;;;;;;1011680;29;3779;-74
2022/03/13 00:39:46;;;;;;;;;;;;;;;;;;1017163;29;4179;-72
2022/03/13 00:40:17;;;;;;;;;;;;;;;;;;1022501;28;1764;-72
2022/03/13 00:40:51;;;;;;;;;;;;;;;;;;1021150;29;4036;-72
2022/03/13 00:41:22;;;;;;;;;;;;;;;;;;1022952;28;1617;-71
2022/03/13 00:41:52;;;;;;;;;;;;;;;;;;1021929;28;4058;-72
2022/03/13 00:42:23;;;;;;;;;;;;;;;;;;1023280;28;1606;-73
2022/03/13 00:42:54;;;;;;;;;;;;;;;;;;1021784;29;4097;-74
2022/03/13 00:43:25;;;;;;;;;;;;;;;;;;1021691;28;1852;-73
2022/03/13 00:43:55;;;;;;;;;;;;;;;;;;1022282;29;4005;-73
2022/03/13 00:44:26;;;;;;;;;;;;;;;;;;1021875;29;1677;-73
2022/03/13 00:44:56;;;;;;;;;;;;;;;;;;1022206;29;4126;-75
2022/03/13 00:45:27;;;;;;;;;;;;;;;;;;1022449;29;1706;-74
2022/03/13 00:45:57;;;;;;;;;;;;;;;;;;1021969;29;4030;-71
2022/03/13 00:46:29;;;;;;;;;;;;;;;;;;1021780;28;2478;-72
2022/03/13 00:46:59;;;;;;;;;;;;;;;;;;1022532;28;4037;-74
2022/03/13 00:47:30;;;;;;;;;;;;;;;;;;1017943;29;2304;-74
2022/03/13 00:48:00;;;;;;;;;;;;;;;;;;1017464;29;4090;-71
2022/03/13 00:48:30;;;;;;;;;;;;;;;;;;1018098;29;2321;-74
2022/03/13 00:49:01;;;;;;;;;;;;;;;;;;1017939;29;3987;-73
2022/03/13 00:49:31;;;;;;;;;;;;;;;;;;1022275;29;2408;-71
2022/03/13 00:50:02;;;;;;;;;;;;;;;;;;1021420;28;4146;-76
2022/03/13 00:50:32;;;;;;;;;;;;;;;;;;1022337;29;2145;-72
2022/03/13 00:51:03;;;;;;;;;;;;;;;;;;1021729;29;3848;-73
2022/03/13 00:51:33;;;;;;;;;;;;;;;;;;1022516;29;1546;-73
2022/03/13 00:52:04;;;;;;;;;;;;;;;;;;1021764;28;3814;-71
2022/03/13 00:52:34;;;;;;;;;;;;;;;;;;1022341;29;1751;-74
2022/03/13 00:53:07;;;;;;;;;;;;;;;;;;1021962;28;4009;-72
2022/03/13 00:53:38;;;;;;;;;;;;;;;;;;1020835;28;2711;-72
2022/03/13 00:54:08;;;;;;;;;;;;;;;;;;1021814;28;4018;-72
2022/03/13 00:54:38;;;;;;;;;;;;;;;;;;1022289;28;1781;-74
2022/03/13 00:55:09;;;;;;;;;;;;;;;;;;1022370;28;4007;-72
2022/03/13 00:55:40;;;;;;;;;;;;;;;;;;1022491;28;1736;-72
2022/03/13 00:56:10;;;;;;;;;;;;;;;;;;1023102;28;4053;-74
2022/03/13 00:56:40;;;;;;;;;;;;;;;;;;1017871;29;2868;-75
2022/03/13 00:57:11;;;;;;;;;;;;;;;;;;1019008;29;3780;-71
2022/03/13 00:57:43;;;;;;;;;;;;;;;;;;1019084;29;1480;-73
2022/03/13 00:58:13;;;;;;;;;;;;;;;;;;1018163;29;3767;-72
2022/03/13 00:58:43;;;;;;;;;;;;;;;;;;1022756;28;1616;-72
2022/03/13 00:59:14;;;;;;;;;;;;;;;;;;1023089;29;4031;-71
2022/03/13 00:59:44;;;;;;;;;;;;;;;;;;1022593;28;4080;-72
2022/03/13 01:00:14;;;;;;;;;;;;;;;;;;1023181;28;1977;-73
2022/03/13 01:00:45;;;;;;;;;;;;;;;;;;1022681;28;4134;-71
2022/03/13 01:01:16;;;;;;;;;;;;;;;;;;1023003;28;3032;-73
2022/03/13 01:01:47;;;;;;;;;;;;;;;;;;1022873;28;4000;-73
2022/03/13 01:02:17;;;;;;;;;;;;;;;;;;1023000;28;1602;-73
2022/03/13 01:02:48;;;;;;;;;;;;;;;;;;1018157;29;3864;-73
2022/03/13 01:03:37;;;;;;;;;;;;;;;;;;1019233;29;1772;-74
2022/03/13 01:04:07;;;;;;;;;;;;;;;;;;1018946;29;3813;-72
2022/03/13 01:04:38;;;;;;;;;;;;;;;;;;1021440;28;1448;-74
2022/03/13 01:05:09;;;;;;;;;;;;;;;;;;1022744;28;4045;-72
2022/03/13 01:05:40;;;;;;;;;;;;;;;;;;1022742;28;2684;-72
2022/03/13 01:06:10;;;;;;;;;;;;;;;;;;1018517;29;3795;-74
2022/03/13 01:06:41;;;;;;;;;;;;;;;;;;1018103;29;2331;-73
2022/03/13 01:07:13;;;;;;;;;;;;;;;;;;1018360;29;4892;-72
2022/03/13 01:07:43;;;;;;;;;;;;;;;;;;1019649;29;1673;-73
2022/03/13 01:08:13;;;;;;;;;;;;;;;;;;1022733;28;3894;-73
2022/03/13 01:08:51;;;;;;;;;;;;;;;;;;1022315;28;3822;-74
2022/03/13 01:09:22;;;;;;;;;;;;;;;;;;1022353;28;1709;-73
2022/03/13 01:09:52;;;;;;;;;;;;;;;;;;1022444;28;3987;-71
2022/03/13 01:10:23;;;;;;;;;;;;;;;;;;1022976;28;1972;-72
2022/03/13 01:10:54;;;;;;;;;;;;;;;;;;1017373;29;3883;-75
2022/03/13 01:11:24;;;;;;;;;;;;;;;;;;1019220;29;1524;-75
2022/03/13 01:11:54;;;;;;;;;;;;;;;;;;1018515;29;3843;-73
2022/03/13 01:12:25;;;;;;;;;;;;;;;;;;1018885;29;2390;-73
2022/03/13 01:12:55;;;;;;;;;;;;;;;;;;1022292;29;4061;-71
2022/03/13 01:13:26;;;;;;;;;;;;;;;;;;1019085;29;1646;-73
2022/03/13 01:13:56;;;;;;;;;;;;;;;;;;1019159;29;3981;-73
2022/03/13 01:14:28;;;;;;;;;;;;;;;;;;1018822;29;1612;-74
2022/03/13 01:14:58;;;;;;;;;;;;;;;;;;1018420;29;3898;-71
2022/03/13 01:15:29;;;;;;;;;;;;;;;;;;1022868;28;1537;-72
2022/03/13 01:16:09;;;;;;;;;;;;;;;;;;1022438;28;3823;-73
2022/03/13 01:16:41;;;;;;;;;;;;;;;;;;1022669;29;2328;-73
2022/03/13 01:17:11;;;;;;;;;;;;;;;;;;1022961;28;4050;-73
2022/03/13 01:17:42;;;;;;;;;;;;;;;;;;1023175;28;1648;-71
2022/03/13 01:18:13;;;;;;;;;;;;;;;;;;1022679;28;3777;-71
2022/03/13 01:18:45;;;;;;;;;;;;;;;;;;1022134;29;2450;-72
2022/03/13 01:19:15;;;;;;;;;;;;;;;;;;1022542;28;3913;-72
2022/03/13 01:19:46;;;;;;;;;;;;;;;;;;1021146;28;3834;-74
2022/03/13 01:20:18;;;;;;;;;;;;;;;;;;1023872;28;1334;-73
2022/03/13 01:20:55;;;;;;;;;;;;;;;;;;1022650;28;3942;-72
2022/03/13 01:21:34;;;;;;;;;;;;;;;;;;1022955;28;2137;-72
2022/03/13 01:22:11;;;;;;;;;;;;;;;;;;1022862;28;3763;-72
2022/03/13 01:22:41;;;;;;;;;;;;;;;;;;1023422;28;1198;-71
2022/03/13 01:23:13;;;;;;;;;;;;;;;;;;1022748;28;4191;-73
2022/03/13 01:23:58;;;;;;;;;;;;;;;;;;1022940;28;1612;-74
2022/03/13 01:24:30;;;;;;;;;;;;;;;;;;1022448;28;4007;-73
2022/03/13 01:25:00;;;;;;;;;;;;;;;;;;1022578;28;3857;-71
2022/03/13 01:25:30;;;;;;;;;;;;;;;;;;1022558;28;1973;-73
2022/03/13 01:26:19;;;;;;;;;;;;;;;;;;1023233;28;3835;-75
2022/03/13 01:26:54;;;;;;;;;;;;;;;;;;1021275;28;4097;-71
2022/03/13 01:27:24;;;;;;;;;;;;;;;;;;1023107;28;1740;-71
2022/03/13 01:27:54;;;;;;;;;;;;;;;;;;1022746;28;3867;-73
2022/03/13 01:28:25;;;;;;;;;;;;;;;;;;1022894;29;1917;-72
2022/03/13 01:28:56;;;;;;;;;;;;;;;;;;1022790;28;3806;-74
2022/03/13 01:29:27;;;;;;;;;;;;;;;;;;1022937;28;2149;-72
2022/03/13 01:29:58;;;;;;;;;;;;;;;;;;1022943;28;4018;-71
2022/03/13 01:30:31;;;;;;;;;;;;;;;;;;1018979;29;1879;-73
2022/03/13 01:31:01;;;;;;;;;;;;;;;;;;1018520;29;3991;-72
2022/03/13 01:31:34;;;;;;;;;;;;;;;;;;1018524;29;1823;-74
2022/03/13 01:32:06;;;;;;;;;;;;;;;;;;1018642;29;3965;-72
2022/03/13 01:32:36;;;;;;;;;;;;;;;;;;1018297;29;2272;-73
2022/03/13 01:33:06;;;;;;;;;;;;;;;;;;1018687;29;4461;-74
2022/03/13 01:33:37;;;;;;;;;;;;;;;;;;1019465;29;1352;-73
2022/03/13 01:34:10;;;;;;;;;;;;;;;;;;1014330;29;3829;-73
2022/03/13 01:34:41;;;;;;;;;;;;;;;;;;1018599;29;2549;-74
2022/03/13 01:35:18;;;;;;;;;;;;;;;;;;1018765;29;3766;-72
2022/03/13 01:35:48;;;;;;;;;;;;;;;;;;1019431;29;3872;-72
2022/03/13 01:36:19;;;;;;;;;;;;;;;;;;1023381;28;1412;-73
2022/03/13 01:36:49;;;;;;;;;;;;;;;;;;1022452;28;3922;-72
2022/03/13 01:37:28;;;;;;;;;;;;;;;;;;1018505;29;1718;-73
2022/03/13 01:37:59;;;;;;;;;;;;;;;;;;1018859;29;3831;-72
2022/03/13 01:38:32;;;;;;;;;;;;;;;;;;1018464;29;2371;-74
2022/03/13 01:39:03;;;;;;;;;;;;;;;;;;1019992;29;4326;-74
2022/03/13 01:39:34;;;;;;;;;;;;;;;;;;1022970;29;2021;-75
2022/03/13 01:40:06;;;;;;;;;;;;;;;;;;1022822;29;3883;-73
2022/03/13 01:40:36;;;;;;;;;;;;;;;;;;1022389;28;2228;-71
2022/03/13 01:41:07;;;;;;;;;;;;;;;;;;1022293;28;3811;-72
2022/03/13 01:41:37;;;;;;;;;;;;;;;;;;1022973;28;1330;-74
2022/03/13 01:42:08;;;;;;;;;;;;;;;;;;1021860;28;3806;-74
2022/03/13 01:42:42;;;;;;;;;;;;;;;;;;1022930;28;1644;-72
2022/03/13 01:43:12;;;;;;;;;;;;;;;;;;1022751;28;4049;-71
2022/03/13 01:43:43;;;;;;;;;;;;;;;;;;1023096;28;1371;-73
2022/03/13 01:44:13;;;;;;;;;;;;;;;;;;1022658;28;3844;-73
2022/03/13 01:44:43;;;;;;;;;;;;;;;;;;1022888;28;1703;-72
2022/03/13 01:45:16;;;;;;;;;;;;;;;;;;1022832;28;3866;-74
2022/03/13 01:45:46;;;;;;;;;;;;;;;;;;1022266;28;3800;-71
2022/03/13 01:46:17;;;;;;;;;;;;;;;;;;1022234;28;2019;-74
2022/03/13 01:46:47;;;;;;;;;;;;;;;;;;1017231;29;4379;-73
2022/03/13 01:47:18;;;;;;;;;;;;;;;;;;1018327;29;1981;-75
2022/03/13 01:47:48;;;;;;;;;;;;;;;;;;1018605;29;3906;-73
2022/03/13 01:48:19;;;;;;;;;;;;;;;;;;1019325;29;1625;-72
2022/03/13 01:49:06;;;;;;;;;;;;;;;;;;1021766;29;4027;-72
2022/03/13 01:49:36;;;;;;;;;;;;;;;;;;1023025;28;1707;-72
2022/03/13 01:50:09;;;;;;;;;;;;;;;;;;1022873;29;4082;-73
2022/03/13 01:50:39;;;;;;;;;;;;;;;;;;1018307;29;1712;-74
2022/03/13 01:51:09;;;;;;;;;;;;;;;;;;1011520;29;3822;-74
2022/03/13 01:51:40;;;;;;;;;;;;;;;;;;1019115;29;1666;-71
2022/03/13 01:52:10;;;;;;;;;;;;;;;;;;1018161;29;3972;-74
2022/03/13 01:52:44;;;;;;;;;;;;;;;;;;1022499;29;2465;-74
2022/03/13 01:53:14;;;;;;;;;;;;;;;;;;1022659;28;3911;-72
2022/03/13 01:53:44;;;;;;;;;;;;;;;;;;1022622;28;3839;-72
2022/03/13 01:54:14;;;;;;;;;;;;;;;;;;1023391;28;1986;-72
2022/03/13 01:54:45;;;;;;;;;;;;;;;;;;1022494;28;4004;-74
2022/03/13 01:55:16;;;;;;;;;;;;;;;;;;1023238;28;2087;-74
2022/03/13 01:55:54;;;;;;;;;;;;;;;;;;1022056;28;3819;-71
2022/03/13 01:56:25;;;;;;;;;;;;;;;;;;1022117;29;2363;-73
2022/03/13 01:56:55;;;;;;;;;;;;;;;;;;1022048;29;3838;-72
2022/03/13 01:57:25;;;;;;;;;;;;;;;;;;1022616;28;1348;-74
2022/03/13 01:57:56;;;;;;;;;;;;;;;;;;1022704;29;4080;-74
2022/03/13 01:58:26;;;;;;;;;;;;;;;;;;1022322;28;1986;-73
2022/03/13 01:58:56;;;;;;;;;;;;;;;;;;1022693;28;4044;-74
2022/03/13 01:59:28;;;;;;;;;;;;;;;;;;1023021;28;1500;-74
2022/03/13 01:59:59;;;;;;;;;;;;;;;;;;1022675;28;4018;-72
2022/03/13 02:00:37;;;;;;;;;;;;;;;;;;1018320;29;1700;-73
2022/03/13 02:01:08;;;;;;;;;;;;;;;;;;1018143;29;3999;-73
2022/03/13 02:01:38;;;;;;;;;;;;;;;;;;1018893;29;1677;-72
2022/03/13 02:02:09;;;;;;;;;;;;;;;;;;1018798;29;3924;-72
2022/03/13 02:02:43;;;;;;;;;;;;;;;;;;1023303;28;1595;-72
2022/03/13 02:03:15;;;;;;;;;;;;;;;;;;1022296;28;4073;-73
2022/03/13 02:03:46;;;;;;;;;;;;;;;;;;1022591;28;4071;-72
2022/03/13 02:04:22;;;;;;;;;;;;;;;;;;1022518;29;1684;-72
2022/03/13 02:04:53;;;;;;;;;;;;;;;;;;1022373;28;3883;-71
2022/03/13 02:05:34;;;;;;;;;;;;;;;;;;1022213;29;1779;-74
2022/03/13 02:06:04;;;;;;;;;;;;;;;;;;1022084;28;3786;-71
2022/03/13 02:06:34;;;;;;;;;;;;;;;;;;1021724;28;2490;-72
2022/03/13 02:07:05;;;;;;;;;;;;;;;;;;1022943;28;3972;-71
2022/03/13 02:07:36;;;;;;;;;;;;;;;;;;1022777;28;2097;-73
2022/03/13 02:08:20;;;;;;;;;;;;;;;;;;1022324;29;4082;-72
2022/03/13 02:08:51;;;;;;;;;;;;;;;;;;1022634;28;4000;-73
2022/03/13 02:09:21;;;;;;;;;;;;;;;;;;1023306;28;1692;-72
2022/03/13 02:09:51;;;;;;;;;;;;;;;;;;1018447;29;4026;-73
2022/03/13 02:10:22;;;;;;;;;;;;;;;;;;1015243;29;1912;-71
2022/03/13 02:10:52;;;;;;;;;;;;;;;;;;1014743;29;4038;-73
2022/03/13 02:11:23;;;;;;;;;;;;;;;;;;1015214;29;1715;-71
2022/03/13 02:11:54;;;;;;;;;;;;;;;;;;1018736;29;3815;-74
2022/03/13 02:12:25;;;;;;;;;;;;;;;;;;1022656;28;1859;-72
2022/03/13 02:12:56;;;;;;;;;;;;;;;;;;1022985;28;4039;-73
2022/03/13 02:13:27;;;;;;;;;;;;;;;;;;1022252;29;2078;-73
2022/03/13 02:13:57;;;;;;;;;;;;;;;;;;1022290;29;3848;-72
2022/03/13 02:14:28;;;;;;;;;;;;;;;;;;1022766;28;2440;-72
2022/03/13 02:14:58;;;;;;;;;;;;;;;;;;1022083;28;3915;-73
2022/03/13 02:15:29;;;;;;;;;;;;;;;;;;1023029;28;1483;-72
2022/03/13 02:15:59;;;;;;;;;;;;;;;;;;1017718;29;4095;-71
2022/03/13 02:16:29;;;;;;;;;;;;;;;;;;1018352;29;2256;-72
2022/03/13 02:16:59;;;;;;;;;;;;;;;;;;1018406;29;3995;-73
2022/03/13 02:17:33;;;;;;;;;;;;;;;;;;1018500;29;1660;-72
2022/03/13 02:18:04;;;;;;;;;;;;;;;;;;1021904;29;4087;-72
2022/03/13 02:18:35;;;;;;;;;;;;;;;;;;1023219;28;2381;-71
2022/03/13 02:19:05;;;;;;;;;;;;;;;;;;1022096;28;3830;-72
2022/03/13 02:19:36;;;;;;;;;;;;;;;;;;1022052;28;1345;-73
2022/03/13 02:20:12;;;;;;;;;;;;;;;;;;1022814;28;4143;-72
2022/03/13 02:20:44;;;;;;;;;;;;;;;;;;1022366;28;1395;-73
2022/03/13 02:21:35;;;;;;;;;;;;;;;;;;1022601;28;3883;-73
2022/03/13 02:22:06;;;;;;;;;;;;;;;;;;1022525;28;3979;-75
2022/03/13 02:22:36;;;;;;;;;;;;;;;;;;1018423;29;2371;-73
2022/03/13 02:23:14;;;;;;;;;;;;;;;;;;1018311;29;3911;-73
2022/03/13 02:23:44;;;;;;;;;;;;;;;;;;1018611;29;3799;-74
2022/03/13 02:24:15;;;;;;;;;;;;;;;;;;1019621;29;2269;-73
2022/03/13 02:24:48;;;;;;;;;;;;;;;;;;1022054;28;4279;-73
2022/03/13 02:25:21;;;;;;;;;;;;;;;;;;1022920;28;1822;-74
2022/03/13 02:25:52;;;;;;;;;;;;;;;;;;1022472;28;3929;-72
2022/03/13 02:26:22;;;;;;;;;;;;;;;;;;1022802;28;1424;-72
2022/03/13 02:27:03;;;;;;;;;;;;;;;;;;1022373;28;4446;-72
2022/03/13 02:27:33;;;;;;;;;;;;;;;;;;1022803;29;2142;-74
2022/03/13 02:28:04;;;;;;;;;;;;;;;;;;1022312;28;4070;-73
2022/03/13 02:28:41;;;;;;;;;;;;;;;;;;1022618;28;1731;-73
2022/03/13 02:29:13;;;;;;;;;;;;;;;;;;1023065;28;3788;-73
2022/03/13 02:29:43;;;;;;;;;;;;;;;;;;1022655;28;1765;-72
2022/03/13 02:30:14;;;;;;;;;;;;;;;;;;1022547;28;3623;-73
2022/03/13 02:30:45;;;;;;;;;;;;;;;;;;1018414;29;4027;-73
2022/03/13 02:31:16;;;;;;;;;;;;;;;;;;1018578;29;1306;-73
2022/03/13 02:31:47;;;;;;;;;;;;;;;;;;1018301;29;3829;-72
2022/03/13 02:32:18;;;;;;;;;;;;;;;;;;1019262;29;2106;-74
2022/03/13 02:32:48;;;;;;;;;;;;;;;;;;1021818;28;4020;-72
2022/03/13 02:33:20;;;;;;;;;;;;;;;;;;1022557;29;3143;-71
2022/03/13 02:33:51;;;;;;;;;;;;;;;;;;1022848;28;3995;-72
2022/03/13 02:34:22;;;;;;;;;;;;;;;;;;1022639;28;1531;-74
2022/03/13 02:34:54;;;;;;;;;;;;;;;;;;1022072;28;4016;-73
2022/03/13 02:35:27;;;;;;;;;;;;;;;;;;1018780;29;1542;-71
2022/03/13 02:35:57;;;;;;;;;;;;;;;;;;1018872;29;4110;-73
2022/03/13 02:36:30;;;;;;;;;;;;;;;;;;1018226;29;1950;-74
2022/03/13 02:37:02;;;;;;;;;;;;;;;;;;1018904;29;4024;-74
2022/03/13 02:37:37;;;;;;;;;;;;;;;;;;1022365;29;1501;-71
2022/03/13 02:38:07;;;;;;;;;;;;;;;;;;1022382;28;3808;-73
2022/03/13 02:38:38;;;;;;;;;;;;;;;;;;1023194;28;1410;-73
2022/03/13 02:39:09;;;;;;;;;;;;;;;;;;1021857;28;3996;-73
2022/03/13 02:39:39;;;;;;;;;;;;;;;;;;1022087;28;1672;-73
2022/03/13 02:40:30;;;;;;;;;;;;;;;;;;1022521;28;4081;-73
2022/03/13 02:41:00;;;;;;;;;;;;;;;;;;1021923;29;3983;-72
2022/03/13 02:41:33;;;;;;;;;;;;;;;;;;1022249;28;2489;-73
2022/03/13 02:42:05;;;;;;;;;;;;;;;;;;1022690;28;3955;-71
2022/03/13 02:42:35;;;;;;;;;;;;;;;;;;1023255;28;1792;-74
2022/03/13 02:43:05;;;;;;;;;;;;;;;;;;1021397;28;8541;-73
2022/03/13 02:43:36;;;;;;;;;;;;;;;;;;1021734;28;2732;-74
2022/03/13 02:44:07;;;;;;;;;;;;;;;;;;1023046;28;3982;-71
2022/03/13 02:44:37;;;;;;;;;;;;;;;;;;1021822;28;1805;-73
2022/03/13 02:45:08;;;;;;;;;;;;;;;;;;1022892;28;4081;-72
2022/03/13 02:45:38;;;;;;;;;;;;;;;;;;1023103;28;1360;-72
2022/03/13 02:46:16;;;;;;;;;;;;;;;;;;1022089;28;3896;-74
2022/03/13 02:46:46;;;;;;;;;;;;;;;;;;1022384;28;4128;-71
2022/03/13 02:47:16;;;;;;;;;;;;;;;;;;1022419;28;1956;-72
2022/03/13 02:47:47;;;;;;;;;;;;;;;;;;1023113;28;3978;-74
2022/03/13 02:48:17;;;;;;;;;;;;;;;;;;1022519;28;1764;-75
2022/03/13 02:48:48;;;;;;;;;;;;;;;;;;1022002;28;4112;-74
2022/03/13 02:49:19;;;;;;;;;;;;;;;;;;1022611;28;2252;-74
2022/03/13 02:49:49;;;;;;;;;;;;;;;;;;1022668;28;3992;-72
2022/03/13 02:50:20;;;;;;;;;;;;;;;;;;1022800;29;1702;-73
2022/03/13 02:50:50;;;;;;;;;;;;;;;;;;1021977;28;3911;-73
2022/03/13 02:51:21;;;;;;;;;;;;;;;;;;1023332;28;1136;-72
2022/03/13 02:51:53;;;;;;;;;;;;;;;;;;1021829;28;3847;-74
2022/03/13 02:52:24;;;;;;;;;;;;;;;;;;1023073;29;1552;-73
2022/03/13 02:52:54;;;;;;;;;;;;;;;;;;1021912;28;4021;-73
2022/03/13 02:53:25;;;;;;;;;;;;;;;;;;1022811;28;2347;-73
2022/03/13 02:54:01;;;;;;;;;;;;;;;;;;1022474;28;4119;-73
2022/03/13 02:54:32;;;;;;;;;;;;;;;;;;1023015;28;2321;-71
2022/03/13 02:55:02;;;;;;;;;;;;;;;;;;1021823;28;4033;-71
2022/03/13 02:55:32;;;;;;;;;;;;;;;;;;1023254;28;1294;-73
2022/03/13 02:56:03;;;;;;;;;;;;;;;;;;1022240;29;3924;-73
2022/03/13 02:56:34;;;;;;;;;;;;;;;;;;1022898;28;1674;-73
2022/03/13 02:57:04;;;;;;;;;;;;;;;;;;1022157;28;3903;-71
2022/03/13 02:57:35;;;;;;;;;;;;;;;;;;1022562;28;2844;-74
2022/03/13 02:58:06;;;;;;;;;;;;;;;;;;1023210;28;3890;-71
2022/03/13 02:58:37;;;;;;;;;;;;;;;;;;1022363;28;2415;-71
2022/03/13 02:59:08;;;;;;;;;;;;;;;;;;1022636;28;3886;-73
2022/03/13 02:59:38;;;;;;;;;;;;;;;;;;1022624;28;1659;-72
2022/03/13 03:00:10;;;;;;;;;;;;;;;;;;1022733;28;3967;-72
2022/03/13 03:00:40;;;;;;;;;;;;;;;;;;1022547;28;2047;-71
2022/03/13 03:01:10;;;;;;;;;;;;;;;;;;1022683;28;3925;-73
2022/03/13 03:01:41;;;;;;;;;;;;;;;;;;1022088;28;1651;-73
2022/03/13 03:02:11;;;;;;;;;;;;;;;;;;1021910;28;3785;-74
2022/03/13 03:02:42;;;;;;;;;;;;;;;;;;1022862;28;1254;-72
2022/03/13 03:03:13;;;;;;;;;;;;;;;;;;1021693;28;3895;-71
2022/03/13 03:03:43;;;;;;;;;;;;;;;;;;1022859;28;2180;-73
2022/03/13 03:04:14;;;;;;;;;;;;;;;;;;1022375;28;3673;-71
2022/03/13 03:04:44;;;;;;;;;;;;;;;;;;1022273;28;3833;-71
2022/03/13 03:05:15;;;;;;;;;;;;;;;;;;1022607;29;1606;-71
2022/03/13 03:05:45;;;;;;;;;;;;;;;;;;1022090;28;3829;-73
2022/03/13 03:06:16;;;;;;;;;;;;;;;;;;1022672;28;1728;-75
2022/03/13 03:06:55;;;;;;;;;;;;;;;;;;1022424;29;4222;-72
2022/03/13 03:07:26;;;;;;;;;;;;;;;;;;1022137;28;1680;-75
2022/03/13 03:07:56;;;;;;;;;;;;;;;;;;1022227;28;3899;-71
2022/03/13 03:08:27;;;;;;;;;;;;;;;;;;1022706;28;2283;-76
2022/03/13 03:09:00;;;;;;;;;;;;;;;;;;1022414;28;4058;-73
2022/03/13 03:09:32;;;;;;;;;;;;;;;;;;1022054;28;1509;-76
2022/03/13 03:10:03;;;;;;;;;;;;;;;;;;1020142;28;4074;-72
2022/03/13 03:10:34;;;;;;;;;;;;;;;;;;1022234;28;2578;-73
2022/03/13 03:11:05;;;;;;;;;;;;;;;;;;1021937;29;3942;-74
2022/03/13 03:11:35;;;;;;;;;;;;;;;;;;1018591;29;2388;-72
2022/03/13 03:12:06;;;;;;;;;;;;;;;;;;1018403;29;3960;-74
2022/03/13 03:12:36;;;;;;;;;;;;;;;;;;1019025;29;1731;-73
2022/03/13 03:13:11;;;;;;;;;;;;;;;;;;1017783;29;3990;-74
2022/03/13 03:13:41;;;;;;;;;;;;;;;;;;1022763;28;1728;-72
2022/03/13 03:14:11;;;;;;;;;;;;;;;;;;1022126;28;4003;-73
2022/03/13 03:14:42;;;;;;;;;;;;;;;;;;1022271;28;2442;-72
2022/03/13 03:15:12;;;;;;;;;;;;;;;;;;1022385;28;5336;-73
2022/03/13 03:15:42;;;;;;;;;;;;;;;;;;1021663;28;2595;-72
2022/03/13 03:16:13;;;;;;;;;;;;;;;;;;1022307;28;3798;-72
2022/03/13 03:16:43;;;;;;;;;;;;;;;;;;1022606;28;1725;-72
2022/03/13 03:17:14;;;;;;;;;;;;;;;;;;1022614;28;3718;-73
2022/03/13 03:17:47;;;;;;;;;;;;;;;;;;1022129;28;5580;-73
2022/03/13 03:18:18;;;;;;;;;;;;;;;;;;1022784;28;1922;-73
2022/03/13 03:18:48;;;;;;;;;;;;;;;;;;1022137;28;3904;-71
2022/03/13 03:19:18;;;;;;;;;;;;;;;;;;1023314;28;1662;-72
2022/03/13 03:19:49;;;;;;;;;;;;;;;;;;1022670;28;4233;-73
2022/03/13 03:20:19;;;;;;;;;;;;;;;;;;1018880;29;2213;-73
2022/03/13 03:21:03;;;;;;;;;;;;;;;;;;1018015;29;3882;-73
2022/03/13 03:21:40;;;;;;;;;;;;;;;;;;1018506;29;1612;-71
2022/03/13 03:22:11;;;;;;;;;;;;;;;;;;1020381;29;3874;-72
2022/03/13 03:22:41;;;;;;;;;;;;;;;;;;1022158;28;2365;-75
2022/03/13 03:23:12;;;;;;;;;;;;;;;;;;1022670;28;4219;-74
2022/03/13 03:23:42;;;;;;;;;;;;;;;;;;1022424;28;1552;-72
2022/03/13 03:24:13;;;;;;;;;;;;;;;;;;1022679;28;3793;-71
2022/03/13 03:24:43;;;;;;;;;;;;;;;;;;1021726;28;2280;-72
2022/03/13 03:25:14;;;;;;;;;;;;;;;;;;1022768;28;4623;-71
2022/03/13 03:25:44;;;;;;;;;;;;;;;;;;1021738;28;4260;-71
2022/03/13 03:26:14;;;;;;;;;;;;;;;;;;1022708;28;1580;-72
2022/03/13 03:26:45;;;;;;;;;;;;;;;;;;1022153;29;4032;-74
2022/03/13 03:27:18;;;;;;;;;;;;;;;;;;1022727;28;1601;-72
2022/03/13 03:27:49;;;;;;;;;;;;;;;;;;1022202;28;4022;-73
2022/03/13 03:28:21;;;;;;;;;;;;;;;;;;1022190;28;1939;-73
2022/03/13 03:28:51;;;;;;;;;;;;;;;;;;1021834;28;4078;-73
2022/03/13 03:29:25;;;;;;;;;;;;;;;;;;1021952;28;2250;-74
2022/03/13 03:29:56;;;;;;;;;;;;;;;;;;1022264;28;3898;-71
2022/03/13 03:30:27;;;;;;;;;;;;;;;;;;1022050;28;2325;-74
2022/03/13 03:31:01;;;;;;;;;;;;;;;;;;1022964;28;4066;-70
2022/03/13 03:31:31;;;;;;;;;;;;;;;;;;1022727;28;1315;-74
2022/03/13 03:32:02;;;;;;;;;;;;;;;;;;1018184;29;4044;-72
2022/03/13 03:32:33;;;;;;;;;;;;;;;;;;1017811;29;2084;-74
2022/03/13 03:33:04;;;;;;;;;;;;;;;;;;1018346;29;3999;-75
2022/03/13 03:33:34;;;;;;;;;;;;;;;;;;1015059;29;1667;-73
2022/03/13 03:34:07;;;;;;;;;;;;;;;;;;1017576;29;4073;-73
2022/03/13 03:34:37;;;;;;;;;;;;;;;;;;1017792;29;2093;-72
2022/03/13 03:35:07;;;;;;;;;;;;;;;;;;1018277;28;3993;-72
2022/03/13 03:35:38;;;;;;;;;;;;;;;;;;1022266;28;2314;-72
2022/03/13 03:36:13;;;;;;;;;;;;;;;;;;1021112;28;3949;-74
2022/03/13 03:36:45;;;;;;;;;;;;;;;;;;1022128;29;2322;-73
2022/03/13 03:37:15;;;;;;;;;;;;;;;;;;1018216;29;5903;-73
2022/03/13 03:37:46;;;;;;;;;;;;;;;;;;1016309;29;3832;-72
2022/03/13 03:38:16;;;;;;;;;;;;;;;;;;1015201;29;1911;-74
2022/03/13 03:38:47;;;;;;;;;;;;;;;;;;1013877;29;3853;-71
2022/03/13 03:39:18;;;;;;;;;;;;;;;;;;1019322;29;1615;-73
2022/03/13 03:39:48;;;;;;;;;;;;;;;;;;1021877;28;3984;-71
2022/03/13 03:40:22;;;;;;;;;;;;;;;;;;1022997;28;2399;-73